Time;durP1;ratioP1;P1;durP2;ratioP2;P2;SDS_P1;SDS_P2;PMS_P1;PMS_P2;Temp;Humidity;BMP_temperature;BMP_pressure;BME280_temperature;BME280_humidity;BME280_pressure;Samples;Min_cycle;Max_cycle;Signal;HPM_P1;HPM_P2
2023/10/02 00:01:18;;;;;;;10.30;6.65;;;;;;;-144.32;100.00;68061.97;10292081;28;20222;-91
2023/10/02 00:06:27;;;;;;;11.73;6.70;;;;;;;-144.32;100.00;68061.97;10286274;28;20047;-83
2023/10/02 00:11:39;;;;;;;12.50;7.32;;;;;;;-144.32;100.00;68061.97;10270790;28;20063;-84
2023/10/02 00:16:43;;;;;;;13.07;6.80;;;;;;;-144.32;100.00;68061.97;10264417;28;20118;-84
2023/10/02 00:21:50;;;;;;;10.90;6.53;;;;;;;-144.32;100.00;68061.97;10186539;29;20083;-82
2023/10/02 00:26:53;;;;;;;11.00;6.73;;;;;;;-144.32;100.00;68061.97;10187701;28;20532;-84
2023/10/02 00:31:57;;;;;;;10.43;6.60;;;;;;;-144.32;100.00;68061.97;10214394;28;20065;-83
2023/10/02 00:37:17;;;;;;;9.27;6.95;;;;;;;-144.32;100.00;68061.97;10229579;28;20043;-84
2023/10/02 00:42:24;;;;;;;12.40;7.05;;;;;;;-144.32;100.00;68061.97;10251072;28;20138;-83
2023/10/02 00:47:40;;;;;;;11.25;6.93;;;;;;;-144.32;100.00;68061.97;10226656;28;20043;-83
2023/10/02 00:52:58;;;;;;;10.15;6.40;;;;;;;-144.32;100.00;68061.97;10232433;28;20501;-83
2023/10/02 00:58:08;;;;;;;10.88;6.07;;;;;;;-144.32;100.00;68061.97;10231602;28;20054;-87
2023/10/02 01:03:16;;;;;;;11.73;6.75;;;;;;;-144.32;100.00;68061.97;10264195;28;20503;-89
2023/10/02 01:08:42;;;;;;;9.63;6.40;;;;;;;-144.32;100.00;68061.97;10304640;23;20487;-92
2023/10/02 01:13:46;;;;;;;12.73;6.50;;;;;;;-144.32;100.00;68061.97;10491255;23;20138;-84
2023/10/02 01:19:06;;;;;;;11.05;6.68;;;;;;;-144.32;100.00;68061.97;10289205;28;20066;-88
2023/10/02 01:24:07;;;;;;;10.82;6.32;;;;;;;-144.32;100.00;68061.97;10266290;28;20054;-84
2023/10/02 01:29:25;;;;;;;10.30;6.43;;;;;;;-144.32;100.00;68061.97;10259403;28;20530;-84
2023/10/02 01:34:53;;;;;;;10.32;6.43;;;;;;;-144.32;100.00;68061.97;10268491;28;20527;-83
2023/10/02 01:40:28;;;;;;;12.30;7.07;;;;;;;-144.32;100.00;68061.97;10240502;28;20059;-86
2023/10/02 01:45:34;;;;;;;10.02;6.95;;;;;;;-144.32;100.00;68061.97;10232448;28;20057;-85
2023/10/02 01:50:37;;;;;;;9.70;6.28;;;;;;;-144.32;100.00;68061.97;10255125;28;20186;-84
2023/10/02 01:55:39;;;;;;;13.03;6.90;;;;;;;-144.32;100.00;68061.97;10232309;28;20059;-84
2023/10/02 02:00:45;;;;;;;12.85;7.18;;;;;;;-144.32;100.00;68061.97;10233975;28;20441;-83
2023/10/02 02:05:46;;;;;;;10.15;6.70;;;;;;;-144.32;100.00;68061.97;10272321;28;20035;-86
2023/10/02 02:10:49;;;;;;;10.57;5.85;;;;;;;-144.32;100.00;68061.97;10270994;28;20081;-85
2023/10/02 02:16:07;;;;;;;13.47;7.37;;;;;;;-144.32;100.00;68061.97;10200510;28;20044;-86
2023/10/02 02:21:10;;;;;;;14.73;6.70;;;;;;;-144.32;100.00;68061.97;10187930;28;20106;-85
2023/10/02 02:26:21;;;;;;;11.30;6.72;;;;;;;-144.32;100.00;68061.97;10212424;29;20043;-85
2023/10/02 02:31:31;;;;;;;13.02;6.57;;;;;;;-144.32;100.00;68061.97;10192287;28;20047;-84
2023/10/02 02:36:35;;;;;;;9.95;6.70;;;;;;;-144.32;100.00;68061.97;10181709;28;20044;-85
2023/10/02 02:41:35;;;;;;;12.30;6.87;;;;;;;-144.32;100.00;68061.97;10192569;29;20079;-84
2023/10/02 02:46:53;;;;;;;11.30;6.28;;;;;;;-144.32;100.00;68061.97;10226355;28;20058;-86
2023/10/02 02:51:56;;;;;;;11.63;6.32;;;;;;;-144.32;100.00;68061.97;10244174;28;20058;-82
2023/10/02 02:57:00;;;;;;;12.00;6.40;;;;;;;-144.32;100.00;68061.97;10253672;28;20051;-84
2023/10/02 03:02:21;;;;;;;11.38;6.97;;;;;;;-144.32;100.00;68061.97;10233408;28;20055;-85
2023/10/02 03:07:30;;;;;;;9.85;5.80;;;;;;;-144.32;100.00;68061.97;10305627;28;20039;-86
2023/10/02 03:12:34;;;;;;;10.30;6.45;;;;;;;-144.32;100.00;68061.97;10264806;28;20073;-84
2023/10/02 03:17:36;;;;;;;10.05;6.28;;;;;;;-144.32;100.00;68061.97;10274895;28;20055;-84
2023/10/02 03:22:37;;;;;;;11.50;6.57;;;;;;;-144.32;100.00;68061.97;10232822;28;20054;-86
2023/10/02 03:27:40;;;;;;;12.52;6.22;;;;;;;-144.32;100.00;68061.97;10228259;28;20053;-87
2023/10/02 03:32:49;;;;;;;12.95;7.20;;;;;;;-144.32;100.00;68061.97;10247993;28;20134;-85
2023/10/02 03:37:52;;;;;;;;;;;;;;;-144.32;100.00;68061.97;10226611;28;20480;-87
2023/10/02 03:43:19;;;;;;;12.98;5.80;;;;;;;-144.32;100.00;68061.97;10217763;28;19918;-87
2023/10/02 03:53:39;;;;;;;11.27;6.50;;;;;;;-144.32;100.00;68061.97;10258543;28;20523;-90
2023/10/02 03:58:43;;;;;;;10.05;6.30;;;;;;;-144.32;100.00;68061.97;10277783;28;20413;-85
2023/10/02 04:09:28;;;;;;;13.32;7.50;;;;;;;-144.32;100.00;68061.97;10279020;28;20078;-85
2023/10/02 04:14:32;;;;;;;;;;;;;;;-144.32;100.00;68061.97;10239834;28;20082;-84
2023/10/02 04:19:35;;;;;;;10.48;6.43;;;;;;;-144.32;100.00;68061.97;10298279;28;19934;-88
2023/10/02 04:24:54;;;;;;;10.13;6.20;;;;;;;-144.32;100.00;68061.97;10290887;28;20055;-87
2023/10/02 04:35:44;;;;;;;12.18;6.80;;;;;;;-144.32;100.00;68061.97;10324230;23;20038;-92
2023/10/02 04:40:52;;;;;;;12.63;6.95;;;;;;;-144.32;100.00;68061.97;10338718;28;20525;-86
2023/10/02 04:45:53;;;;;;;15.80;7.72;;;;;;;-144.32;100.00;68061.97;10335407;28;20051;-84
2023/10/02 04:51:03;;;;;;;15.05;7.25;;;;;;;-144.32;100.00;68061.97;10295332;28;20112;-83
2023/10/02 05:01:41;;;;;;;12.02;7.13;;;;;;;-144.32;100.00;68061.97;10311368;28;20057;-83
2023/10/02 05:06:52;;;;;;;12.13;6.88;;;;;;;-144.32;100.00;68061.97;10297598;28;20062;-85
2023/10/02 05:12:04;;;;;;;11.02;7.25;;;;;;;-144.32;100.00;68061.97;10283229;28;20522;-84
2023/10/02 05:17:17;;;;;;;10.65;6.40;;;;;;;-144.32;100.00;68061.97;10306958;28;20138;-84
2023/10/02 05:22:24;;;;;;;12.88;6.60;;;;;;;-144.32;100.00;68061.97;10310419;28;20061;-84
2023/10/02 05:27:31;;;;;;;11.23;6.97;;;;;;;-144.32;100.00;68061.97;10252626;28;20058;-84
2023/10/02 05:32:35;;;;;;;14.68;8.02;;;;;;;-144.32;100.00;68061.97;10219467;28;20090;-84
2023/10/02 05:37:39;;;;;;;13.88;7.25;;;;;;;-144.32;100.00;68061.97;10338683;23;20066;-85
2023/10/02 05:42:46;;;;;;;12.50;7.22;;;;;;;-144.32;100.00;68061.97;10298098;28;20043;-84
2023/10/02 05:47:48;;;;;;;13.15;7.45;;;;;;;-144.32;100.00;68061.97;10309105;28;20808;-84
2023/10/02 05:52:54;;;;;;;16.77;8.10;;;;;;;-144.32;100.00;68061.97;10313820;28;20130;-83
2023/10/02 05:57:58;;;;;;;12.70;7.43;;;;;;;-144.32;100.00;68061.97;10273975;28;20073;-85
2023/10/02 06:03:05;;;;;;;14.60;8.25;;;;;;;-144.32;100.00;68061.97;10271271;28;20128;-83
2023/10/02 06:08:33;;;;;;;15.15;8.02;;;;;;;-144.32;100.00;68061.97;10258868;28;20054;-83
2023/10/02 06:13:37;;;;;;;14.50;8.23;;;;;;;-144.32;100.00;68061.97;10272188;28;20051;-84
2023/10/02 06:18:42;;;;;;;15.07;8.25;;;;;;;-144.32;100.00;68061.97;10262437;28;20075;-87
2023/10/02 06:23:45;;;;;;;14.32;8.02;;;;;;;-144.32;100.00;68061.97;10290116;28;20049;-86
2023/10/02 06:28:48;;;;;;;15.20;7.65;;;;;;;-144.32;100.00;68061.97;10348351;28;20649;-84
2023/10/02 06:33:51;;;;;;;14.00;8.48;;;;;;;-144.32;100.00;68061.97;10355710;28;20082;-85
2023/10/02 06:38:54;;;;;;;14.85;7.75;;;;;;;-144.32;100.00;68061.97;10258512;28;20058;-78
2023/10/02 06:44:14;;;;;;;16.85;8.00;;;;;;;-144.32;100.00;68061.97;10329369;28;20050;-84
2023/10/02 06:49:20;;;;;;;;;;;;;;;-144.32;100.00;68061.97;10384411;28;20086;-84
2023/10/02 06:54:21;;;;;;;13.88;7.45;;;;;;;-144.32;100.00;68061.97;10368443;28;20103;-84
2023/10/02 06:59:21;;;;;;;12.05;7.90;;;;;;;-144.32;100.00;68061.97;10334108;28;20205;-84
2023/10/02 07:04:29;;;;;;;16.95;8.98;;;;;;;-144.32;100.00;68061.97;10341904;28;20054;-90
2023/10/02 07:09:37;;;;;;;17.35;9.30;;;;;;;-144.32;100.00;68061.97;10386704;28;20054;-83
2023/10/02 07:14:38;;;;;;;15.50;8.70;;;;;;;-144.32;100.00;68061.97;10387696;28;20046;-84
2023/10/02 07:19:39;;;;;;;18.33;9.70;;;;;;;-144.32;100.00;68061.97;10375630;28;20932;-85
2023/10/02 07:24:40;;;;;;;17.25;9.75;;;;;;;-144.32;100.00;68061.97;10342478;28;20050;-84
2023/10/02 07:29:42;;;;;;;16.88;9.70;;;;;;;-144.32;100.00;68061.97;10335540;28;20046;-86
2023/10/02 07:34:45;;;;;;;16.17;9.48;;;;;;;-144.32;100.00;68061.97;10333542;28;20058;-88
2023/10/02 07:39:46;;;;;;;16.45;9.68;;;;;;;-144.32;100.00;68061.97;10361507;28;20043;-86
2023/10/02 07:44:47;;;;;;;17.65;9.82;;;;;;;-144.32;100.00;68061.97;10337086;28;20054;-86
2023/10/02 07:49:52;;;;;;;20.05;10.68;;;;;;;-144.32;100.00;68061.97;10311332;28;20049;-85
2023/10/02 07:54:58;;;;;;;23.35;11.40;;;;;;;-144.32;100.00;68061.97;10300983;28;20097;-77
2023/10/02 08:00:05;;;;;;;18.20;9.48;;;;;;;-144.32;100.00;68061.97;10309541;28;20369;-77
2023/10/02 08:05:09;;;;;;;17.80;10.20;;;;;;;-144.32;100.00;68061.97;10290646;28;20057;-75
2023/10/02 08:10:10;;;;;;;18.95;10.38;;;;;;;-144.32;100.00;68061.97;10309668;28;20067;-76
2023/10/02 08:15:26;;;;;;;22.90;11.43;;;;;;;-144.32;100.00;68061.97;10301686;28;20068;-78
2023/10/02 08:20:36;;;;;;;24.08;11.80;;;;;;;-144.32;100.00;68061.97;10308921;28;20059;-77
2023/10/02 08:25:37;;;;;;;16.90;9.63;;;;;;;-144.32;100.00;68061.97;10306024;28;20595;-81
2023/10/02 08:30:38;;;;;;;19.23;9.82;;;;;;;-144.32;100.00;68061.97;10302858;28;20065;-79
2023/10/02 08:35:46;;;;;;;21.70;11.35;;;;;;;-144.32;100.00;68061.97;10302970;28;20121;-79
2023/10/02 08:40:55;;;;;;;18.45;11.00;;;;;;;-144.32;100.00;68061.97;10331228;28;20111;-81
2023/10/02 08:45:59;;;;;;;17.67;10.45;;;;;;;-144.32;100.00;68061.97;10325161;28;20034;-81
2023/10/02 08:51:04;;;;;;;17.13;9.38;;;;;;;-144.32;100.00;68061.97;10312195;28;20152;-81
2023/10/02 08:56:23;;;;;;;21.52;10.73;;;;;;;-144.32;100.00;68061.97;10341982;28;20120;-81
2023/10/02 09:01:27;;;;;;;17.10;9.55;;;;;;;-144.32;100.00;68061.97;10296024;28;20062;-81
2023/10/02 09:06:36;;;;;;;20.00;9.73;;;;;;;-144.32;100.00;68061.97;10295434;28;20089;-81
2023/10/02 09:11:37;;;;;;;19.13;10.43;;;;;;;-144.32;100.00;68061.97;10329416;28;20153;-78
2023/10/02 09:16:38;;;;;;;21.33;10.40;;;;;;;-144.32;100.00;68061.97;10311798;28;20056;-77
2023/10/02 09:21:46;;;;;;;16.45;9.23;;;;;;;-144.32;100.00;68061.97;10299571;28;20114;-78
2023/10/02 09:26:48;;;;;;;19.40;10.25;;;;;;;-144.32;100.00;68061.97;10305036;28;20750;-78
2023/10/02 09:31:49;;;;;;;18.90;9.75;;;;;;;-144.32;100.00;68061.97;10311417;28;20137;-77
2023/10/02 09:36:53;;;;;;;16.73;9.30;;;;;;;-144.32;100.00;68061.97;10313239;28;20574;-77
2023/10/02 09:42:05;;;;;;;16.35;9.27;;;;;;;-144.32;100.00;68061.97;10309964;28;20072;-78
2023/10/02 09:47:08;;;;;;;19.07;10.40;;;;;;;-144.32;100.00;68061.97;10316693;28;20058;-76
2023/10/02 09:52:16;;;;;;;15.80;9.20;;;;;;;-144.32;100.00;68061.97;10306948;28;20503;-75
2023/10/02 09:57:25;;;;;;;18.42;8.77;;;;;;;-144.32;100.00;68061.97;10309375;28;20289;-74
2023/10/02 10:07:52;;;;;;;17.95;8.68;;;;;;;-144.32;100.00;68061.97;10317547;28;20845;-80
2023/10/02 10:12:58;;;;;;;17.80;8.93;;;;;;;-144.32;100.00;68061.97;10311050;28;20094;-80
2023/10/02 10:17:58;;;;;;;16.20;9.18;;;;;;;-144.32;100.00;68061.97;10304619;28;20154;-76
2023/10/02 10:23:19;;;;;;;13.82;8.40;;;;;;;-144.32;100.00;68061.97;10303987;28;20972;-74
2023/10/02 10:28:27;;;;;;;13.98;8.50;;;;;;;-144.32;100.00;68061.97;10310584;28;20475;-79
2023/10/02 10:33:33;;;;;;;14.10;7.72;;;;;;;-144.32;100.00;68061.97;10294218;28;20054;-77
2023/10/02 10:38:41;;;;;;;16.73;9.48;;;;;;;-144.32;100.00;68061.97;10300438;28;20050;-78
2023/10/02 10:49:07;;;;;;;14.27;8.05;;;;;;;-144.32;100.00;68061.97;10315239;28;20311;-79
2023/10/02 10:54:25;;;;;;;15.07;8.82;;;;;;;-144.32;100.00;68061.97;10287547;28;20566;-76
2023/10/02 10:59:33;;;;;;;15.52;7.78;;;;;;;-144.32;100.00;68061.97;10307865;28;20132;-78
2023/10/02 11:04:34;;;;;;;14.48;8.43;;;;;;;-144.32;100.00;68061.97;10311723;28;20065;-78
2023/10/02 11:09:41;;;;;;;15.13;8.10;;;;;;;-144.32;100.00;68061.97;10312291;28;20050;-77
2023/10/02 11:14:44;;;;;;;16.83;8.02;;;;;;;-144.32;100.00;68061.97;10282312;28;20695;-78
2023/10/02 11:19:54;;;;;;;15.25;8.45;;;;;;;-144.32;100.00;68061.97;10317542;28;20099;-78
2023/10/02 11:24:55;;;;;;;15.63;8.25;;;;;;;-144.32;100.00;68061.97;10315384;28;20066;-79
2023/10/02 11:30:02;;;;;;;13.57;7.65;;;;;;;-144.32;100.00;68061.97;10320395;28;20051;-79
2023/10/02 11:35:03;;;;;;;12.50;7.25;;;;;;;-144.32;100.00;68061.97;10292537;28;20288;-82
2023/10/02 11:40:04;;;;;;;15.13;7.70;;;;;;;-144.32;100.00;68061.97;10314903;28;20050;-79
2023/10/02 11:45:05;;;;;;;13.35;7.15;;;;;;;-144.32;100.00;68061.97;10327170;28;20060;-80
2023/10/02 11:50:06;;;;;;;13.80;7.47;;;;;;;-144.32;100.00;68061.97;10293030;28;20058;-78
2023/10/02 11:55:07;;;;;;;14.13;7.90;;;;;;;-144.32;100.00;68061.97;10301715;28;20084;-77
2023/10/02 12:00:12;;;;;;;15.63;8.60;;;;;;;-144.32;100.00;68061.97;10322103;28;20042;-78
2023/10/02 12:05:14;;;;;;;16.42;8.88;;;;;;;-144.32;100.00;68061.97;10310816;28;20130;-77
2023/10/02 12:10:15;;;;;;;13.88;8.30;;;;;;;-144.32;100.00;68061.97;10277022;28;20067;-78
2023/10/02 12:15:16;;;;;;;17.02;8.32;;;;;;;-144.32;100.00;68061.97;10259013;28;20134;-80
2023/10/02 12:20:22;;;;;;;16.10;9.17;;;;;;;-144.32;100.00;68061.97;10233651;28;20125;-79
2023/10/02 12:25:23;;;;;;;17.20;9.52;;;;;;;-144.32;100.00;68061.97;10244653;28;20404;-79
2023/10/02 12:30:23;;;;;;;15.60;8.50;;;;;;;-144.32;100.00;68061.97;10234806;28;20050;-81
2023/10/02 12:35:24;;;;;;;15.80;8.33;;;;;;;-144.32;100.00;68061.97;10255743;28;20444;-80
2023/10/02 12:40:31;;;;;;;15.73;8.30;;;;;;;-144.32;100.00;68061.97;10253340;28;20054;-80
2023/10/02 12:45:35;;;;;;;15.35;8.35;;;;;;;-144.32;100.00;68061.97;10269151;28;20050;-80
2023/10/02 12:50:39;;;;;;;17.90;8.40;;;;;;;-144.32;100.00;68061.97;10250365;28;20051;-81
2023/10/02 12:55:43;;;;;;;13.00;8.07;;;;;;;-144.32;100.00;68061.97;10261298;28;20054;-80
2023/10/02 13:00:43;;;;;;;14.02;9.25;;;;;;;-144.32;100.00;68061.97;10251860;28;20054;-80
2023/10/02 13:05:44;;;;;;;14.37;8.50;;;;;;;-144.32;100.00;68061.97;10280656;28;20094;-78
2023/10/02 13:10:45;;;;;;;12.63;7.47;;;;;;;-144.32;100.00;68061.97;10267717;28;20063;-79
2023/10/02 13:15:48;;;;;;;15.35;8.32;;;;;;;-144.32;100.00;68061.97;10266124;28;20459;-81
2023/10/02 13:20:53;;;;;;;12.95;7.50;;;;;;;-144.32;100.00;68061.97;10285212;28;20059;-81
2023/10/02 13:25:54;;;;;;;13.48;7.47;;;;;;;-144.32;100.00;68061.97;10304343;28;20213;-81
2023/10/02 13:30:55;;;;;;;15.37;8.03;;;;;;;-144.32;100.00;68061.97;10293748;28;20054;-79
2023/10/02 13:35:57;;;;;;;15.33;8.17;;;;;;;-144.32;100.00;68061.97;10280564;28;20166;-81
2023/10/02 13:41:08;;;;;;;13.85;7.63;;;;;;;-144.32;100.00;68061.97;10259615;28;20082;-79
2023/10/02 13:46:14;;;;;;;14.63;8.15;;;;;;;-144.32;100.00;68061.97;10267681;28;20097;-82
2023/10/02 13:51:18;;;;;;;13.93;7.93;;;;;;;-144.32;100.00;68061.97;10262691;28;20733;-81
2023/10/02 13:56:20;;;;;;;14.40;7.80;;;;;;;-144.32;100.00;68061.97;10256713;28;20465;-79
2023/10/02 14:01:24;;;;;;;14.88;7.55;;;;;;;-144.32;100.00;68061.97;10254571;28;20485;-80
2023/10/02 14:06:28;;;;;;;16.27;8.15;;;;;;;-144.32;100.00;68061.97;10242330;28;20097;-79
2023/10/02 14:11:28;;;;;;;16.33;7.88;;;;;;;-144.32;100.00;68061.97;10257991;28;20065;-80
2023/10/02 14:16:29;;;;;;;15.60;8.77;;;;;;;-144.32;100.00;68061.97;10266665;28;20053;-82
2023/10/02 14:21:29;;;;;;;17.70;9.43;;;;;;;-144.32;100.00;68061.97;10256130;28;20404;-79
2023/10/02 14:26:30;;;;;;;18.03;9.23;;;;;;;-144.32;100.00;68061.97;10258526;28;20061;-81
2023/10/02 14:31:31;;;;;;;16.58;9.20;;;;;;;-144.32;100.00;68061.97;10260804;28;20125;-78
2023/10/02 14:36:32;;;;;;;14.63;8.93;;;;;;;-144.32;100.00;68061.97;10260164;28;20058;-81
2023/10/02 14:41:33;;;;;;;17.87;9.80;;;;;;;-144.32;100.00;68061.97;10263865;28;20051;-80
2023/10/02 14:46:33;;;;;;;17.33;9.20;;;;;;;-144.32;100.00;68061.97;10275711;28;20063;-83
2023/10/02 14:51:33;;;;;;;17.67;9.30;;;;;;;-144.32;100.00;68061.97;10259375;28;20066;-86
2023/10/02 14:56:34;;;;;;;19.87;10.10;;;;;;;-144.32;100.00;68061.97;10289116;28;20079;-82
2023/10/02 15:01:35;;;;;;;55.17;42.43;;;;;;;-144.32;100.00;68061.97;10254388;28;20607;-82
2023/10/02 15:06:35;;;;;;;31.13;22.03;;;;;;;-144.32;100.00;68061.97;10268662;28;20811;-77
2023/10/02 15:11:36;;;;;;;55.73;29.27;;;;;;;-144.32;100.00;68061.97;10260578;28;20063;-79
2023/10/02 15:16:37;;;;;;;62.47;40.00;;;;;;;-144.32;100.00;68061.97;10284568;28;20506;-79
2023/10/02 15:21:37;;;;;;;32.57;21.47;;;;;;;-144.32;100.00;68061.97;10271904;28;20047;-82
2023/10/02 15:26:39;;;;;;;24.40;13.53;;;;;;;-144.32;100.00;68061.97;10282032;28;20055;-81
2023/10/02 15:31:40;;;;;;;32.53;19.65;;;;;;;-144.32;100.00;68061.97;10266332;28;20055;-80
2023/10/02 15:36:40;;;;;;;25.55;13.23;;;;;;;-144.32;100.00;68061.97;10269759;28;20139;-79
2023/10/02 15:41:44;;;;;;;24.80;13.15;;;;;;;-144.32;100.00;68061.97;10270189;28;20471;-81
2023/10/02 15:46:46;;;;;;;37.03;23.45;;;;;;;-144.32;100.00;68061.97;10276212;28;20051;-78
2023/10/02 15:51:46;;;;;;;38.30;22.30;;;;;;;-144.32;100.00;68061.97;10275264;28;20066;-80
2023/10/02 15:56:47;;;;;;;73.03;56.55;;;;;;;-144.32;100.00;68061.97;10253529;28;20047;-81
2023/10/02 16:01:48;;;;;;;33.58;20.27;;;;;;;-144.32;100.00;68061.97;10265078;28;20059;-78
2023/10/02 16:06:48;;;;;;;28.23;16.93;;;;;;;-144.32;100.00;68061.97;10270357;28;20054;-79
2023/10/02 16:11:49;;;;;;;27.57;14.93;;;;;;;-144.32;100.00;68061.97;10260998;28;20054;-78
2023/10/02 16:16:51;;;;;;;32.03;16.30;;;;;;;-144.32;100.00;68061.97;10260635;28;20059;-81
2023/10/02 16:21:51;;;;;;;33.25;18.33;;;;;;;-144.32;100.00;68061.97;10261617;28;20656;-78
2023/10/02 16:26:52;;;;;;;34.70;18.83;;;;;;;-144.32;100.00;68061.97;10263494;28;20047;-78
2023/10/02 16:31:54;;;;;;;28.90;17.05;;;;;;;-144.32;100.00;68061.97;10258839;28;20051;-77
2023/10/02 16:36:54;;;;;;;28.77;15.57;;;;;;;-144.32;100.00;68061.97;10271552;28;20141;-78
2023/10/02 16:41:55;;;;;;;32.22;17.90;;;;;;;-144.32;100.00;68061.97;10287738;28;20061;-80
2023/10/02 16:46:55;;;;;;;32.03;17.33;;;;;;;-144.32;100.00;68061.97;10244277;28;20055;-81
2023/10/02 16:51:56;;;;;;;31.35;15.95;;;;;;;-144.32;100.00;68061.97;10272347;28;20066;-84
2023/10/02 16:56:56;;;;;;;30.95;15.40;;;;;;;-144.32;100.00;68061.97;10269315;28;20059;-86
2023/10/02 17:02:01;;;;;;;28.85;15.98;;;;;;;-144.32;100.00;68061.97;10273476;28;21362;-86
2023/10/02 17:07:03;;;;;;;31.25;15.52;;;;;;;-144.32;100.00;68061.97;10261370;28;20066;-86
2023/10/02 17:12:19;;;;;;;34.35;16.00;;;;;;;-144.32;100.00;68061.97;10282162;28;20074;-87
2023/10/02 17:17:50;;;;;;;26.65;14.63;;;;;;;-144.32;100.00;68061.97;10318811;28;20050;-86
2023/10/02 17:22:51;;;;;;;29.75;15.23;;;;;;;-144.32;100.00;68061.97;10330057;28;20094;-85
2023/10/02 17:27:58;;;;;;;30.13;15.50;;;;;;;-144.32;100.00;68061.97;10321886;28;20553;-84
2023/10/02 17:33:01;;;;;;;28.15;13.77;;;;;;;-144.32;100.00;68061.97;10320798;28;20062;-84
2023/10/02 17:38:01;;;;;;;27.42;14.30;;;;;;;-144.32;100.00;68061.97;10319712;28;20125;-85
2023/10/02 17:43:03;;;;;;;26.48;14.18;;;;;;;-144.32;100.00;68061.97;10307371;28;20145;-84
2023/10/02 17:48:04;;;;;;;27.98;14.20;;;;;;;-144.32;100.00;68061.97;10312447;28;20105;-84
2023/10/02 17:53:06;;;;;;;29.73;14.65;;;;;;;-144.32;100.00;68061.97;10305853;28;20070;-85
2023/10/02 17:58:11;;;;;;;30.20;15.20;;;;;;;-144.32;100.00;68061.97;10332675;28;20046;-89
2023/10/02 18:03:15;;;;;;;27.92;15.27;;;;;;;-144.32;100.00;68061.97;10342677;28;20145;-89
2023/10/02 18:08:16;;;;;;;27.55;14.80;;;;;;;-144.32;100.00;68061.97;10292913;28;20083;-91
2023/10/02 18:13:19;;;;;;;31.33;15.32;;;;;;;-144.32;100.00;68061.97;10274076;28;20051;-91
2023/10/02 18:18:21;;;;;;;27.75;14.70;;;;;;;-144.32;100.00;68061.97;10295905;28;20054;-88
2023/10/02 18:23:25;;;;;;;31.75;16.30;;;;;;;-144.32;100.00;68061.97;10278411;28;20051;-89
2023/10/02 18:28:26;;;;;;;28.92;15.27;;;;;;;-144.32;100.00;68061.97;10281109;28;20055;-84
2023/10/02 18:33:27;;;;;;;28.60;16.23;;;;;;;-144.32;100.00;68061.97;10269112;28;20146;-88
2023/10/02 18:38:29;;;;;;;27.23;15.03;;;;;;;-144.32;100.00;68061.97;10320839;28;20031;-89
2023/10/02 18:43:32;;;;;;;27.48;13.63;;;;;;;-144.32;100.00;68061.97;10314475;28;20119;-87
2023/10/02 18:48:34;;;;;;;24.52;13.80;;;;;;;-144.32;100.00;68061.97;10534258;23;20053;-85
2023/10/02 18:53:36;;;;;;;25.25;13.45;;;;;;;-144.32;100.00;68061.97;10350043;28;20114;-86
2023/10/02 18:58:39;;;;;;;22.55;11.98;;;;;;;-144.32;100.00;68061.97;10379893;28;20045;-89
2023/10/02 19:03:44;;;;;;;23.75;12.55;;;;;;;-144.32;100.00;68061.97;10706801;23;20089;-85
2023/10/02 19:08:50;;;;;;;25.52;12.32;;;;;;;-144.32;100.00;68061.97;10542953;23;20051;-87
2023/10/02 19:19:27;;;;;;;22.30;10.98;;;;;;;-144.32;100.00;68061.97;10394664;23;20055;-79
2023/10/02 19:24:28;;;;;;;22.15;11.63;;;;;;;-144.32;100.00;68061.97;10358842;28;20045;-86
2023/10/02 19:29:31;;;;;;;20.35;11.38;;;;;;;-144.32;100.00;68061.97;10366713;28;20050;-89
2023/10/02 19:34:31;;;;;;;;;;;;;;;-144.32;100.00;68061.97;10365490;28;20475;-86
2023/10/02 19:39:31;;;;;;;23.50;11.67;;;;;;;-144.32;100.00;68061.97;10361492;28;19906;-86
2023/10/02 19:55:11;;;;;;;19.20;10.57;;;;;;;-144.32;100.00;68061.97;10794732;23;20070;-87
2023/10/02 20:13:25;;;;;;;21.98;11.35;;;;;;;-144.32;100.00;68061.97;10367950;28;21144;-86
2023/10/02 20:18:26;;;;;;;22.80;11.55;;;;;;;-144.32;100.00;68061.97;10361309;28;20090;-82
2023/10/02 20:23:32;;;;;;;22.73;11.27;;;;;;;-144.32;100.00;68061.97;10352557;28;20053;-82
2023/10/02 21:01:44;;;;;;;24.65;12.70;;;;;;;-144.32;100.00;68061.97;10270095;28;20070;-86
2023/10/02 21:12:08;;;;;;;21.95;11.90;;;;;;;-144.32;100.00;68061.97;10279859;28;20039;-93
2023/10/02 21:17:08;;;;;;;24.25;12.50;;;;;;;-144.32;100.00;68061.97;10226134;29;20471;-83
2023/10/02 21:22:11;;;;;;;22.90;11.93;;;;;;;-144.32;100.00;68061.97;10249832;28;20043;-86
2023/10/02 21:27:18;;;;;;;20.48;11.43;;;;;;;-144.32;100.00;68061.97;10424318;23;20449;-86
2023/10/02 21:32:47;;;;;;;23.52;12.43;;;;;;;-144.32;100.00;68061.97;10489630;23;20044;-87
2023/10/02 21:37:49;;;;;;;22.58;12.23;;;;;;;-144.32;100.00;68061.97;10294579;28;20492;-88
2023/10/02 21:42:59;;;;;;;22.42;11.60;;;;;;;-144.32;100.00;68061.97;10290054;28;20122;-89
2023/10/02 21:47:59;;;;;;;22.85;12.50;;;;;;;-144.32;100.00;68061.97;10315267;28;20082;-89
2023/10/02 21:53:00;;;;;;;21.38;11.52;;;;;;;-144.32;100.00;68061.97;10289969;28;20067;-90
2023/10/02 21:58:02;;;;;;;21.40;11.55;;;;;;;-144.32;100.00;68061.97;10327361;28;20030;-90
2023/10/02 22:03:06;;;;;;;22.55;11.75;;;;;;;-144.32;100.00;68061.97;10304926;28;20039;-88
2023/10/02 22:08:07;;;;;;;22.85;11.55;;;;;;;-144.32;100.00;68061.97;10320750;28;20053;-85
2023/10/02 22:13:07;;;;;;;21.60;11.48;;;;;;;-144.32;100.00;68061.97;10318986;28;20058;-83
2023/10/02 22:18:12;;;;;;;23.90;12.50;;;;;;;-144.32;100.00;68061.97;10304297;28;20424;-84
2023/10/02 22:23:15;;;;;;;21.33;11.65;;;;;;;-144.32;100.00;68061.97;10292390;28;20067;-84
2023/10/02 22:28:16;;;;;;;20.13;11.30;;;;;;;-144.32;100.00;68061.97;10269608;28;20155;-85
2023/10/02 22:33:19;;;;;;;20.33;11.23;;;;;;;-144.32;100.00;68061.97;10251641;28;20076;-88
2023/10/02 22:38:21;;;;;;;25.88;12.32;;;;;;;-144.32;100.00;68061.97;10245637;28;20093;-87
2023/10/02 22:43:21;;;;;;;23.07;11.37;;;;;;;-144.32;100.00;68061.97;10295716;28;20075;-88
2023/10/02 22:48:22;;;;;;;23.48;11.57;;;;;;;-144.32;100.00;68061.97;10251387;28;20166;-87
2023/10/02 22:53:24;;;;;;;20.63;11.20;;;;;;;-144.32;100.00;68061.97;10240581;28;20056;-86
2023/10/02 22:58:26;;;;;;;22.23;12.60;;;;;;;-144.32;100.00;68061.97;10244407;28;20098;-83
2023/10/02 23:03:27;;;;;;;24.05;11.98;;;;;;;-144.32;100.00;68061.97;10280416;28;20090;-85
2023/10/02 23:08:27;;;;;;;19.85;11.43;;;;;;;-144.32;100.00;68061.97;10331800;28;20129;-89
2023/10/02 23:13:29;;;;;;;23.42;11.68;;;;;;;-144.32;100.00;68061.97;10297518;28;20086;-84
2023/10/02 23:18:34;;;;;;;21.17;11.55;;;;;;;-144.32;100.00;68061.97;10298653;28;20058;-87
2023/10/02 23:23:39;;;;;;;22.60;12.30;;;;;;;-144.32;100.00;68061.97;10292867;28;20043;-83
2023/10/02 23:28:41;;;;;;;25.48;12.85;;;;;;;-144.32;100.00;68061.97;10260331;28;20111;-84
2023/10/02 23:33:41;;;;;;;23.92;12.80;;;;;;;-144.32;100.00;68061.97;10252180;28;20499;-89
2023/10/02 23:38:42;;;;;;;22.77;11.88;;;;;;;-144.32;100.00;68061.97;10248300;28;20134;-87
2023/10/02 23:43:44;;;;;;;22.88;11.40;;;;;;;-144.32;100.00;68061.97;10248132;28;20119;-87
2023/10/02 23:48:47;;;;;;;22.08;11.00;;;;;;;-144.32;100.00;68061.97;10248753;28;20043;-87
2023/10/02 23:53:47;;;;;;;;;;;;;;;-144.32;100.00;68061.97;10305012;28;20078;-87
2023/10/02 23:58:52;;;;;;;24.52;11.50;;;;;;;-144.32;100.00;68061.97;10326208;28;19910;-87
